Date,TemperatureHighF,TemperatureAvgF,TemperatureLowF,DewpointHighF,DewpointAvgF,DewpointLowF,HumidityHigh,HumidityAvg,HumidityLow,PressureMaxIn,PressureMinIn,WindSpeedMaxMPH,WindSpeedAvgMPH,GustSpeedMaxMPH,PrecipitationSumIn
2012-1-1,52,38,21,20,12,8,66,37,18,30.66,30.16,7,3,16,0.00
2012-1-2,53,34,17,16,13,9,72,45,22,30.85,30.51,6,2,14,0.00
2012-1-3,66,40,18,31,20,14,87,52,18,30.66,30.07,9,2,17,0.00
2012-1-4,51,42,25,24,19,16,69,40,26,30.50,30.03,8,3,20,0.00
2012-1-5,59,39,17,17,12,4,81,41,11,30.55,29.99,7,2,14,0.00
2012-1-6,61,49,29,12,7,3,44,19,10,30.14,29.83,12,5,26,0.00
2012-1-7,59,38,18,22,12,9,79,41,15,30.19,29.98,9,1,14,0.00
2012-1-8,60,42,28,33,19,11,87,42,17,30.08,29.82,5,1,16,0.00
2012-1-9,36,30,27,33,27,23,92,88,83,30.30,29.96,5,1,17,0.07
2012-1-10,45,36,26,30,24,18,90,64,36,30.30,29.99,9,4,20,0.02
2012-1-11,57,47,29,27,19,15,67,34,22,30.02,29.78,10,5,28,0.01
2012-1-12,39,29,22,26,18,7,91,66,35,30.37,30.02,7,3,16,0.00
2012-1-13,49,34,16,22,15,8,72,47,20,30.44,30.11,5,1,12,0.00
2012-1-14,60,32,12,12,3,-4,71,40,8,30.65,30.26,5,1,12,0.00
2012-1-15,61,47,25,30,23,9,74,41,25,30.37,29.96,11,3,25,0.00
2012-1-16,63,54,33,28,26,23,74,35,24,30.08,29.80,14,7,30,0.00
2012-1-17,59,48,26,33,25,18,75,43,20,30.35,29.87,13,4,25,0.00
2012-1-18,62,43,22,26,16,7,87,45,12,30.44,29.94,10,4,21,0.00
2012-1-19,67,55,35,17,12,7,36,19,13,30.02,29.81,12,4,25,0.00
2012-1-20,67,57,34,13,9,1,37,15,10,29.93,29.70,12,6,30,0.00
2012-1-21,66,51,29,13,5,2,38,17,9,30.09,29.65,9,3,22,0.00
2012-1-22,59,54,45,13,7,3,22,15,11,29.96,29.54,20,9,37,0.00
2012-1-23,62,45,26,8,5,2,40,21,9,30.16,29.83,8,2,18,0.00
2012-1-24,58,47,25,27,12,3,51,28,13,29.94,29.59,10,3,21,0.00
2012-1-25,42,31,22,31,27,19,94,85,47,30.26,29.85,5,2,18,0.09
2012-1-26,53,40,23,32,24,18,94,56,26,30.35,30.07,7,3,18,0.33
2012-1-27,62,51,28,26,18,15,74,31,18,30.16,29.83,9,4,20,0.01
2012-1-28,46,36,26,27,21,15,80,55,36,30.50,30.06,9,3,20,0.00
2012-1-29,60,44,20,33,24,17,90,52,24,30.54,30.22,5,1,12,0.00
2012-1-30,62,49,23,31,25,20,89,45,22,30.33,30.02,7,3,15,0.00
2012-1-31,63,51,28,33,24,19,91,42,19,30.25,30.00,6,3,17,0.00
2012-2-1,64,50,28,24,19,13,77,35,14,30.37,30.01,5,2,13,0.00
2012-2-2,66,53,32,32,18,7,59,28,10,30.02,29.64,11,5,26,0.00
2012-2-3,61,47,25,18,11,8,54,26,13,30.13,29.78,7,2,16,0.00
2012-2-4,41,34,28,28,22,18,88,62,42,30.38,30.01,5,2,14,0.00
2012-2-5,40,32,25,24,20,16,86,65,42,30.42,30.28,7,2,13,0.00
2012-2-6,56,39,24,29,22,16,79,52,28,30.37,29.98,6,2,16,0.00
2012-2-7,55,34,24,33,23,19,87,69,30,30.40,30.06,6,1,13,0.00
2012-2-8,51,36,25,33,28,21,89,72,44,30.45,30.15,9,4,20,0.00
2012-2-9,60,40,24,37,29,22,92,67,37,30.28,29.98,8,2,20,0.00
2012-2-10,55,41,28,32,25,14,93,58,21,30.29,29.98,5,2,20,0.00
2012-2-11,54,34,21,26,21,17,86,64,29,30.41,30.16,10,4,21,0.00
2012-2-12,41,34,26,39,28,19,93,81,70,30.27,29.96,7,3,20,0.14
2012-2-13,54,44,28,39,27,20,96,54,28,29.98,29.75,14,6,35,0.13
2012-2-14,60,44,25,33,25,20,86,54,21,30.07,29.75,12,3,24,0.00
2012-2-15,53,42,25,25,19,11,63,42,18,30.17,29.76,13,5,28,0.00
2012-2-16,56,43,26,37,23,11,91,50,27,30.18,29.88,7,2,26,0.06
2012-2-17,53,42,34,41,35,27,96,80,37,30.04,29.87,6,2,20,0.02
2012-2-18,49,38,23,32,28,19,85,68,38,30.19,29.89,6,2,20,0.02
2012-2-19,59,40,16,25,17,8,88,49,13,30.26,29.73,11,4,24,0.00
2012-2-20,56,46,24,18,12,4,53,26,13,30.19,29.75,13,6,31,0.00
2012-2-21,64,42,19,12,7,1,62,31,8,30.31,29.91,10,2,20,0.00
2012-2-22,64,57,50,9,5,-2,17,12,9,30.02,29.66,14,8,32,0.00
2012-2-23,68,60,54,25,16,2,25,19,11,29.78,29.47,19,10,43,0.00
2012-2-24,51,37,24,26,12,6,56,37,23,30.38,29.78,7,3,25,0.00
2012-2-25,59,40,18,23,15,9,71,40,19,30.40,29.96,9,2,17,0.00
2012-2-26,69,56,37,27,22,15,53,29,13,29.97,29.70,6,3,17,0.00
2012-2-27,64,48,29,40,25,20,69,44,21,30.13,29.80,8,3,22,0.00
2012-2-28,72,61,52,44,22,-5,68,28,6,29.87,29.67,14,7,30,0.00
2012-2-29,64,47,28,19,9,1,54,25,9,30.19,29.86,11,3,22,0.00
2012-3-1,67,57,39,11,3,-7,18,12,6,29.96,29.64,14,8,35,0.00
2012-3-2,65,56,38,10,3,-1,21,12,9,29.93,29.58,14,7,32,0.00
2012-3-3,51,37,19,12,1,-8,62,27,9,30.35,29.93,7,3,20,0.00
2012-3-4,66,51,24,3,-1,-5,27,13,7,30.34,29.99,11,4,21,0.00
2012-3-5,72,56,22,4,-2,-8,36,12,5,30.35,29.89,9,3,20,0.00
2012-3-6,71,61,40,20,14,1,24,16,8,29.97,29.60,10,4,20,0.00
2012-3-7,74,66,56,17,6,-2,19,10,6,29.65,29.51,12,6,30,0.00
2012-3-8,56,37,27,30,21,2,89,60,12,30.42,29.62,6,3,20,0.00
2012-3-9,27,26,24,24,22,20,92,87,82,30.55,30.39,5,2,17,0.00
2012-3-10,55,35,25,36,28,-100,96,80,40,30.39,29.89,7,2,18,0.00
2012-3-11,61,49,32,24,15,9,73,28,14,30.11,29.88,16,6,31,0.00
2012-3-12,71,48,25,11,7,0,47,24,6,30.15,29.93,5,1,13,0.00
2012-3-13,75,50,32,30,15,7,57,28,9,30.14,29.87,6,2,17,0.00
2012-3-14,74,53,30,27,17,8,67,32,9,30.12,29.88,5,1,13,0.00
2012-3-15,74,54,35,26,12,5,60,24,8,30.11,29.94,5,1,13,0.00
2012-3-16,76,57,37,50,32,11,78,43,18,30.04,29.67,11,3,21,0.00
2012-3-17,75,60,35,50,28,16,87,39,12,30.00,29.62,10,4,21,0.00
2012-3-18,69,65,60,34,21,13,34,19,13,29.64,29.47,14,8,31,0.00
2012-3-19,60,48,35,36,26,16,78,46,18,29.78,29.45,14,5,28,0.02
2012-3-20,41,33,26,27,17,-100,84,56,30,29.89,29.67,11,7,29,0.02
2012-4-11,40,40,40,14,14,14,34,34,34,29.86,29.86,7,2,13,0.00
2012-4-12,40,40,40,14,14,14,34,34,34,29.86,29.86,0,0,0,0.00
2012-4-21,78,68,57,25,14,-100,28,19,12,29.91,29.80,2,1,7,0.00
2012-4-22,80,67,42,32,27,24,50,25,14,29.96,29.80,6,2,25,0.00
2012-4-23,80,67,49,34,29,25,46,25,14,29.98,29.75,7,3,20,0.00
2012-4-24,85,70,45,34,28,25,53,24,12,29.89,29.62,7,3,18,0.00
2012-4-25,88,75,51,30,25,19,43,17,9,29.79,29.61,12,4,20,0.00
2012-4-26,86,74,49,22,19,16,27,14,9,29.80,29.62,7,1,16,0.00
2012-4-27,81,70,51,26,20,13,28,16,9,29.78,29.51,11,4,26,0.00
2012-4-28,84,68,45,30,16,-100,40,16,7,29.72,29.46,6,2,20,0.00
2012-4-29,80,70,42,51,27,21,63,23,12,29.73,29.56,7,2,20,0.00
2012-4-30,85,68,43,53,39,19,84,40,9,29.80,29.61,10,3,24,0.00
2012-5-1,84,70,45,50,32,20,67,29,11,29.79,29.52,9,3,24,0.00
2012-5-2,84,69,46,47,22,10,77,26,7,29.76,29.55,9,3,20,0.00
2012-5-3,82,72,50,35,15,10,32,12,8,29.85,29.65,9,3,18,0.00
2012-5-4,84,70,42,49,21,8,70,25,7,29.89,29.72,11,3,24,0.00
2012-5-5,80,67,43,18,13,-100,27,14,9,29.84,29.63,10,3,20,0.00
2012-5-6,81,67,41,18,14,9,28,14,8,29.86,29.65,10,4,21,0.00
2012-5-7,76,64,49,54,27,11,88,28,13,29.83,29.63,5,1,14,0.09
2012-5-8,58,53,49,53,50,46,94,88,76,29.98,29.68,7,2,17,0.20
2012-5-9,55,52,48,49,47,45,90,85,74,30.01,29.84,9,3,20,0.13
2012-5-10,61,52,45,49,43,35,92,73,42,29.89,29.69,10,3,26,0.60
2012-5-11,67,57,47,46,44,42,88,65,43,29.96,29.71,6,2,17,0.09
2012-5-12,70,56,42,46,41,-100,93,61,34,30.12,29.96,6,2,16,0.01
2012-5-13,72,59,48,47,45,43,85,62,37,30.10,29.88,7,3,16,0.00
2012-5-14,64,53,45,49,45,40,89,74,44,30.12,29.90,10,3,21,0.20
2012-5-15,66,53,39,45,43,37,93,71,43,30.16,30.01,6,2,12,0.10
2012-5-16,73,57,37,49,34,27,96,53,19,30.14,29.88,6,2,16,0.01
2012-5-17,82,63,39,42,34,26,84,42,14,29.98,29.64,9,2,22,0.00
2012-5-18,85,76,62,39,30,22,33,19,12,29.68,29.46,10,5,26,0.00
2012-5-19,86,73,51,50,28,-100,54,24,8,29.74,29.49,12,4,28,0.00
2012-5-20,77,66,49,51,45,38,76,51,29,29.89,29.64,9,3,17,0.00
2012-5-21,78,62,45,60,46,38,94,59,31,30.16,29.82,5,1,17,0.32
2012-5-22,86,67,49,53,43,25,92,52,11,30.04,29.58,10,2,24,0.35
2012-5-23,88,76,54,42,29,21,61,20,9,29.59,29.34,12,5,37,0.03
2012-5-24,87,77,61,35,26,22,35,16,10,29.55,29.37,10,5,28,0.01
2012-5-25,87,75,56,45,30,23,43,20,11,29.65,29.40,12,5,36,0.00
2012-5-26,85,71,61,63,48,42,83,47,24,29.67,29.52,15,6,35,0.06
2012-5-27,84,70,54,54,45,24,90,46,12,29.74,29.57,11,3,26,0.11
2012-5-28,88,70,47,54,33,21,76,34,10,29.79,29.61,6,2,18,0.01
2012-5-29,89,68,42,38,24,11,61,26,6,29.84,29.64,7,2,18,0.00
2012-5-30,88,71,44,22,14,6,40,15,5,29.77,29.50,11,3,26,0.00
2012-5-31,82,70,46,54,28,5,56,25,7,29.73,29.48,9,3,22,0.00
2012-6-1,82,69,59,58,50,40,87,56,23,29.80,29.64,7,3,18,0.00
2012-6-2,86,73,52,54,42,-100,80,39,16,29.77,29.56,10,3,21,0.00
2012-6-3,89,75,52,52,37,18,70,31,9,29.71,29.52,7,2,28,0.00
2012-6-4,90,73,48,36,25,20,53,21,8,29.75,29.48,8,2,18,0.00
2012-6-5,84,67,50,56,45,36,82,47,22,29.75,29.58,5,1,12,0.07
2012-6-6,90,73,52,48,32,18,74,31,8,29.75,29.49,6,2,17,0.01
2012-6-7,89,77,55,41,34,22,53,24,9,29.70,29.49,8,3,24,0.00
2012-6-8,83,66,52,62,45,35,88,50,28,29.88,29.59,6,1,14,0.37
2012-6-9,90,77,58,47,31,-100,68,24,9,29.76,29.43,9,4,22,0.01
2012-6-10,89,75,53,39,27,17,56,22,9,29.72,29.50,10,3,24,0.00
2012-6-11,90,74,49,43,29,20,48,23,9,29.83,29.64,7,1,20,0.01
2012-6-12,89,78,62,59,40,30,61,27,15,29.78,29.59,8,3,20,0.03
2012-6-13,87,76,68,54,48,40,55,38,21,29.68,29.54,16,6,32,0.02
2012-6-14,90,78,69,51,43,31,50,31,13,29.69,29.47,14,7,31,0.00
2012-6-15,85,72,57,66,44,35,91,40,20,29.78,29.54,13,5,35,1.49
2012-6-16,81,67,54,56,47,-100,87,54,23,29.92,29.70,8,1,13,0.01
2012-6-17,83,71,54,55,50,41,92,53,23,29.91,29.62,6,1,14,0.00
2012-6-18,92,76,54,55,43,30,86,39,12,29.68,29.39,10,3,26,0.00
2012-6-19,92,80,59,46,33,21,55,21,8,29.52,29.38,9,4,26,0.00
2012-6-20,92,78,56,54,38,21,72,31,8,29.62,29.41,10,3,22,0.00
2012-6-21,83,73,54,53,48,43,80,44,26,29.79,29.56,10,3,18,0.00
2012-6-22,82,71,52,53,48,41,85,47,27,29.85,29.68,8,3,21,0.00
2012-6-23,84,73,63,50,44,34,59,38,17,29.73,29.64,7,3,26,0.00
2012-6-24,86,74,57,49,44,36,67,36,21,29.81,29.67,6,3,18,0.00
2012-6-25,88,75,52,51,42,29,80,37,12,29.86,29.65,7,2,21,0.00
2012-6-26,90,77,55,50,39,27,71,30,11,29.77,29.59,8,3,20,0.00
2012-6-27,91,76,60,45,38,32,53,29,13,29.77,29.62,8,3,22,0.00
2012-6-28,90,79,61,52,43,39,62,30,18,29.79,29.67,7,2,20,0.00
2012-6-29,90,75,54,46,41,35,67,34,15,29.81,29.61,7,2,25,0.00
2012-6-30,88,78,58,46,41,34,57,29,16,29.72,29.57,7,3,16,0.00
2012-7-1,83,72,52,54,48,41,87,47,24,29.74,29.58,6,3,18,0.00
2012-7-2,76,69,61,63,54,50,84,62,40,29.75,29.67,8,3,21,0.03
2012-7-3,82,68,62,62,57,52,89,68,37,29.80,29.65,10,4,29,0.60
2012-7-4,77,67,61,59,56,52,85,68,51,29.80,29.66,9,3,26,0.22
2012-7-5,72,66,60,59,56,53,89,71,54,29.87,29.73,6,2,17,0.05
2012-7-6,76,68,64,59,54,51,71,60,43,29.89,29.78,9,3,20,0.02
2012-7-7,81,70,55,55,48,38,85,49,23,29.93,29.78,8,2,21,0.00
2012-7-8,81,70,56,61,50,46,83,53,30,29.90,29.77,6,2,21,0.04
2012-7-9,81,71,58,58,54,50,89,57,34,29.92,29.76,6,2,17,0.06
2012-7-10,75,67,62,60,57,52,91,73,48,29.89,29.76,6,1,16,0.49
2012-7-11,71,65,61,61,59,54,95,82,56,29.95,29.82,6,2,16,0.52
2012-7-12,78,69,60,59,54,46,93,63,36,29.89,29.78,7,2,14,0.02
2012-7-13,78,68,53,60,51,46,95,59,33,29.93,29.78,5,1,14,0.00
2012-7-14,82,71,53,55,49,42,95,52,26,29.93,29.77,6,2,14,0.00
2012-7-15,83,72,54,54,47,39,88,45,21,29.89,29.69,6,2,13,0.00
2012-7-16,84,72,56,55,49,41,86,47,23,29.79,29.63,6,2,14,0.01
2012-7-17,81,68,54,57,52,49,89,59,33,29.81,29.70,5,1,18,0.01
2012-7-18,80,69,52,57,52,49,92,58,36,29.88,29.72,8,2,18,0.01
2012-7-19,77,68,55,58,53,48,90,62,36,29.93,29.78,10,3,24,0.06
2012-7-20,78,68,61,59,56,53,84,67,46,29.97,29.86,7,2,21,0.07
2012-7-21,85,72,53,58,46,37,93,45,20,30.00,29.77,7,2,16,0.01
2012-7-22,84,73,50,52,43,35,85,39,18,29.92,29.75,5,2,14,0.00
2012-7-23,85,73,59,58,48,41,70,43,24,29.92,29.76,7,2,21,0.00
2012-7-24,80,73,66,55,51,47,67,47,31,29.86,29.70,8,1,20,0.00
2012-7-25,78,68,58,53,50,48,76,55,35,29.80,29.72,7,3,20,0.00
2012-7-27,72,66,61,61,59,56,93,77,63,29.95,29.82,6,2,17,0.23
2012-7-28,80,71,62,61,56,49,89,63,36,29.96,29.83,9,3,22,0.01
2012-7-29,83,73,59,58,53,46,85,53,28,29.94,29.79,6,2,20,0.00
2012-7-30,85,75,56,54,47,40,78,40,22,29.90,29.72,6,2,14,0.00
2012-7-31,88,75,56,53,48,44,78,42,25,29.88,29.73,5,1,10,0.00
2012-8-1,89,78,57,51,46,42,73,36,20,29.86,29.66,7,2,20,0.00
2012-8-2,92,76,56,50,46,41,75,39,18,29.76,29.56,5,2,18,0.00
2012-8-3,93,79,60,48,44,36,61,33,15,29.70,29.51,7,2,20,0.00
2012-8-4,91,78,59,52,48,43,71,37,21,29.71,29.54,6,2,17,0.00
2012-8-5,82,72,56,56,52,48,87,52,32,29.94,29.71,9,4,20,0.00
2012-8-6,85,73,54,54,49,46,82,48,26,30.01,29.80,8,3,18,0.00
2012-8-7,88,75,54,54,48,41,84,43,21,29.92,29.72,6,2,18,0.00
2012-8-8,86,77,70,52,48,44,49,36,25,29.84,29.71,7,3,21,0.00
2012-8-9,84,72,57,56,50,46,74,48,27,29.89,29.74,8,2,17,0.00
2012-8-10,86,72,52,56,47,39,88,47,21,29.93,29.72,9,3,22,0.00
2012-8-11,90,73,54,49,43,39,72,39,17,29.87,29.70,9,2,20,0.00
2012-8-12,90,76,54,49,43,38,70,35,16,29.85,29.66,6,2,20,0.00
2012-8-13,83,72,58,57,50,43,73,48,27,29.92,29.70,9,3,20,0.01
2012-8-14,87,76,60,55,48,42,73,40,22,29.90,29.61,9,3,26,0.01
2012-8-15,89,73,55,53,46,43,69,41,22,29.74,29.59,9,1,20,0.00
2012-8-16,85,75,62,61,52,46,84,48,28,29.81,29.59,8,2,21,0.22
2012-8-17,81,71,60,58,55,52,87,60,38,29.90,29.71,6,2,16,0.13
2012-8-18,80,67,61,64,59,56,93,78,46,29.81,29.66,6,2,17,0.35
2012-8-19,78,67,55,63,57,54,97,73,49,29.86,29.72,7,3,20,0.02
2012-8-20,81,69,53,59,49,41,96,57,24,29.91,29.74,7,2,17,0.01
2012-8-21,84,71,52,54,48,45,86,48,27,29.85,29.72,6,2,14,0.00
2012-8-22,81,72,62,55,49,45,72,46,30,29.87,29.72,7,2,17,0.00
2012-8-23,86,76,65,54,49,46,62,41,27,29.78,29.63,9,4,26,0.00
2012-8-24,86,71,55,62,54,48,87,58,28,29.77,29.61,9,3,25,0.05
2012-8-25,85,72,54,59,50,43,87,51,24,29.75,29.59,10,3,21,0.05
2012-8-26,81,67,58,61,56,48,95,70,37,29.90,29.66,6,1,16,0.18
2012-8-27,75,65,55,61,57,53,95,76,47,29.97,29.81,7,2,16,0.09
2012-8-28,77,65,52,59,50,41,97,65,28,30.04,29.85,9,2,16,0.01
2012-8-29,76,66,51,60,52,45,96,64,42,29.94,29.74,7,2,16,0.00
2012-8-30,81,66,45,53,40,34,90,48,19,29.91,29.76,5,2,12,0.00
2012-8-31,82,68,45,43,40,37,76,41,22,29.98,29.80,5,2,16,0.00
2012-9-1,85,72,51,52,43,38,74,40,20,29.93,29.78,6,2,16,0.00
2012-9-2,85,74,53,54,48,39,83,43,22,29.90,29.71,6,1,17,0.00
2012-9-3,83,73,58,57,52,47,83,50,29,29.83,29.67,9,2,21,0.00
2012-9-4,87,74,61,58,51,47,73,47,25,29.85,29.64,5,2,17,0.02
2012-9-5,88,73,55,57,51,47,90,51,24,29.84,29.66,8,2,17,0.01
2012-9-6,86,70,54,62,53,48,94,60,27,29.88,29.66,6,2,17,0.94
2012-9-7,85,70,55,66,54,46,94,63,27,29.91,29.70,6,1,14,0.42
2012-9-8,73,60,53,55,46,38,78,60,39,30.16,29.70,9,5,21,0.11
2012-9-9,76,60,42,43,39,28,90,52,23,30.18,29.98,6,2,14,0.00
2012-9-10,79,66,46,46,41,38,83,45,27,30.06,29.80,7,1,16,0.00
2012-9-11,81,69,51,48,42,40,77,43,26,29.93,29.74,7,2,13,0.00
2012-9-12,78,65,57,55,50,44,89,61,31,29.92,29.75,9,1,16,0.10
2012-9-13,65,56,51,55,52,49,95,89,63,30.22,29.76,5,2,13,0.20
2012-9-14,54,51,49,48,47,46,94,88,75,30.29,30.18,3,1,13,0.04
2012-9-15,57,52,45,50,47,43,95,85,71,30.22,30.08,5,1,8,0.86
2012-9-16,74,56,40,49,42,33,97,64,22,30.16,29.86,5,1,17,0.01
2012-9-17,81,68,46,42,34,25,84,33,13,29.92,29.68,6,2,18,0.00
2012-9-18,72,60,48,52,45,29,82,58,29,30.02,29.76,6,2,16,0.00
2012-9-19,78,63,44,52,44,37,96,58,24,30.10,29.88,7,2,17,0.01
2012-9-20,80,64,44,46,37,27,91,47,15,30.05,29.79,7,2,17,0.01
2012-9-21,82,66,46,43,36,31,70,39,16,30.02,29.77,5,1,16,0.00
2012-9-22,81,61,43,39,31,-100,74,42,13,30.10,29.85,7,2,17,0.00
2012-9-23,77,64,49,38,32,28,51,31,20,30.02,29.91,7,2,18,0.00
2012-9-24,79,65,47,48,42,35,76,47,22,30.00,29.76,7,2,18,0.00
2012-9-25,82,72,51,47,40,33,73,35,18,29.89,29.63,9,3,20,0.00
2012-9-26,82,69,56,57,46,41,67,45,26,29.85,29.62,9,3,22,0.02
2012-9-27,69,64,59,58,53,48,87,66,47,29.91,29.72,7,2,21,0.12
2012-9-28,60,59,57,58,56,53,95,91,83,29.92,29.79,3,1,12,1.37
2012-9-29,57,55,51,56,52,49,95,91,80,30.03,29.83,5,2,14,0.82
2012-9-30,73,59,47,54,48,44,97,72,41,30.01,29.83,10,2,26,0.07
2012-10-1,69,58,44,48,43,39,92,62,34,30.01,29.84,9,2,20,0.05
2012-10-2,73,58,40,48,42,38,96,61,29,30.07,29.86,8,2,20,0.00
2012-10-3,80,68,44,43,34,25,89,34,14,29.89,29.69,9,4,21,0.00
2012-10-4,78,71,50,43,33,27,74,27,19,29.99,29.78,7,3,14,0.00
2012-10-5,80,65,44,43,38,34,82,44,20,30.06,29.85,6,2,17,0.00
2012-10-6,77,56,43,51,44,38,93,68,26,30.00,29.78,8,2,18,0.00
2012-10-7,71,49,38,48,41,37,96,79,30,30.10,29.89,8,3,17,0.00
2012-10-8,76,54,36,46,39,34,94,65,26,30.13,29.86,7,2,14,0.00
2012-10-9,78,60,45,44,38,32,86,51,20,30.02,29.80,9,2,16,0.00
2012-10-10,72,60,42,50,42,37,85,55,33,30.06,29.86,7,3,20,0.00
2012-10-11,77,67,58,58,52,44,86,60,38,29.93,29.75,12,5,30,0.01
2012-10-12,78,69,62,57,52,43,65,55,41,29.89,29.72,12,7,26,0.01
2012-10-13,74,66,54,54,41,18,85,47,15,29.90,29.75,14,6,39,0.00
2012-10-14,68,54,39,35,31,25,65,42,27,30.17,29.88,6,2,13,0.00
2012-10-15,71,58,43,48,40,33,71,53,37,30.12,29.83,6,1,14,0.00
2012-10-16,71,63,55,50,46,41,80,57,35,29.83,29.65,9,3,20,0.00
2012-10-17,77,67,61,50,32,23,64,30,14,29.73,29.59,9,5,25,0.00
2012-10-18,76,66,43,37,30,21,48,27,14,29.91,29.65,7,4,22,0.00
2012-10-19,79,57,35,35,28,24,67,40,15,30.01,29.80,5,1,18,0.00
2012-10-20,78,62,40,42,38,32,75,45,25,29.93,29.71,7,2,16,0.00
2012-10-21,80,64,46,42,39,32,79,46,19,29.87,29.71,6,2,20,0.00
2012-10-22,76,60,43,44,38,33,84,50,21,29.92,29.71,9,2,20,0.00
2012-10-23,81,61,38,38,34,29,79,44,15,30.00,29.77,7,2,13,0.00
2012-10-24,82,66,47,52,40,23,82,44,15,29.82,29.56,11,3,25,0.00
2012-10-25,70,54,39,33,28,23,73,40,18,29.96,29.69,7,2,22,0.01
2012-10-26,47,39,35,37,31,28,90,73,56,30.31,29.89,5,2,16,0.01
2012-10-27,60,43,34,42,25,13,81,50,32,30.28,29.96,5,2,13,0.00
2012-10-28,69,45,28,41,31,26,95,65,27,30.28,30.01,5,1,12,0.00
2012-10-29,73,51,30,32,26,20,85,48,14,30.25,30.01,9,1,16,0.00
2012-10-30,74,52,35,24,18,10,56,31,9,30.19,29.89,4,1,16,0.00
2012-10-31,75,48,30,27,19,13,62,37,10,30.21,29.96,5,1,12,0.00
2012-11-1,74,52,29,30,22,17,71,40,12,30.22,29.92,4,1,18,0.00
2012-11-2,73,53,35,35,28,26,72,44,19,30.10,29.81,5,1,16,0.00
2012-11-3,67,55,40,45,36,28,88,52,28,30.09,29.73,9,3,20,0.04
2012-11-4,71,51,34,43,35,29,94,62,21,30.24,30.01,9,1,20,0.01
2012-11-5,68,49,32,39,28,22,92,52,17,30.24,30.07,5,1,14,0.00
2012-11-6,74,48,30,30,22,20,75,44,14,30.31,30.06,6,1,12,0.00
2012-11-7,76,51,31,29,22,19,68,40,12,30.31,29.97,6,1,13,0.00
2012-11-8,75,55,37,30,26,22,63,38,17,30.07,29.83,12,3,20,0.00
2012-11-9,74,58,37,40,31,27,69,40,18,30.06,29.65,10,4,21,0.00
2012-11-10,71,65,61,39,33,26,43,30,23,29.66,29.52,16,8,35,0.00
2012-11-11,61,45,24,28,18,0,55,35,18,30.37,29.57,7,3,20,0.00
2012-11-12,54,34,13,4,2,-1,56,29,12,30.59,30.30,6,2,16,0.00
2012-11-13,63,46,27,29,16,3,63,32,22,30.29,30.01,7,2,13,0.00
2012-11-14,64,40,19,21,16,-100,76,45,14,30.51,30.14,7,2,16,0.00
2012-11-15,68,47,29,27,21,15,69,41,14,30.30,30.07,6,1,20,0.00
2012-11-16,61,46,34,29,22,16,65,41,24,30.33,30.10,7,2,17,0.00
2012-11-17,70,50,32,45,34,25,83,58,27,30.29,29.96,5,1,13,0.00
2012-11-18,64,56,46,46,43,41,82,63,46,30.11,29.86,5,2,16,0.00
2012-11-19,67,53,40,45,39,32,91,61,34,30.21,29.99,7,2,14,0.00
2012-11-20,67,49,30,39,32,28,94,59,29,30.32,30.02,4,1,10,0.00
2012-11-21,64,55,44,50,42,35,82,63,43,30.08,29.96,13,3,24,0.01
2012-11-22,69,54,38,42,36,31,87,53,26,30.18,29.88,7,2,24,0.01
2012-11-23,49,41,37,33,26,19,82,57,32,30.48,30.08,7,2,13,0.00
2012-11-24,63,51,31,42,34,28,87,56,37,30.32,30.07,6,2,16,0.00
2012-11-25,67,52,30,40,31,24,91,50,24,30.08,29.78,11,4,25,0.00
2012-11-26,66,49,33,33,26,19,77,46,21,30.15,29.92,5,1,18,0.00
2012-11-27,65,41,23,34,25,18,86,58,20,30.45,30.13,6,1,13,0.00
2012-11-28,66,44,26,31,26,19,86,55,24,30.47,30.08,7,2,14,0.00
2012-11-29,67,46,29,38,28,24,89,54,21,30.29,30.04,6,1,16,0.00
2012-11-30,69,53,30,32,26,18,77,39,19,30.17,29.90,9,3,21,0.00
2012-12-1,72,50,30,29,24,19,72,42,14,30.28,29.83,7,2,17,0.00
2012-12-2,73,47,29,33,24,17,70,47,18,30.27,29.93,10,2,18,0.00
2012-12-3,67,51,34,30,23,19,74,40,16,30.13,29.92,10,3,20,0.00
2012-12-4,62,43,30,30,24,19,75,49,25,30.37,30.06,4,1,10,0.00
2012-12-5,66,45,25,29,25,21,87,52,22,30.42,29.96,8,2,15,0.00
2012-12-6,69,51,32,24,19,-100,67,34,16,29.97,29.68,10,4,21,0.00
2012-12-7,66,48,30,23,19,15,55,35,16,29.98,29.76,9,2,20,0.00
2012-12-8,62,46,26,26,20,14,64,38,18,30.00,29.80,12,4,30,0.00
2012-12-9,60,49,30,33,25,17,80,41,26,29.99,29.69,10,4,24,0.00
2012-12-10,46,31,11,30,11,4,84,48,24,30.29,29.98,10,3,20,0.00
2012-12-11,50,31,14,6,2,-2,56,32,13,30.35,30.01,6,1,14,0.00
2012-12-12,60,33,10,18,8,-3,58,38,14,30.37,30.03,6,2,18,0.00
2012-12-13,61,48,24,26,20,12,68,35,21,30.29,29.83,7,3,24,0.00
2012-12-14,61,51,40,40,33,26,60,50,32,29.91,29.56,14,8,32,0.00
2012-12-15,58,42,22,28,16,7,85,41,15,30.06,29.82,12,2,24,0.00
2012-12-16,50,44,30,29,24,13,67,45,28,30.00,29.78,16,7,35,0.00
2012-12-17,56,44,31,29,18,12,67,38,17,30.06,29.85,12,6,37,0.00
2012-12-18,68,50,26,17,9,4,50,23,9,30.10,29.60,10,3,26,0.00
2012-12-19,61,54,34,27,4,-12,45,17,5,30.06,29.47,16,10,37,0.00
2012-12-20,51,31,8,9,-2,-12,66,30,7,30.66,30.06,6,2,18,0.00
2012-12-21,53,42,22,8,-7,-21,28,14,4,30.48,30.11,7,2,18,0.00
2012-12-22,65,50,25,30,16,-2,39,27,14,30.24,29.88,9,3,20,0.00
2012-12-23,59,53,27,34,30,15,59,41,33,30.06,29.83,12,5,22,0.00
2012-12-24,61,41,21,28,13,7,74,38,13,30.07,29.64,10,3,25,0.00
2012-12-25,49,37,20,27,17,8,61,46,23,30.20,29.52,16,7,40,0.00
2012-12-26,51,31,15,16,10,6,71,47,22,30.29,29.91,7,2,16,0.00
2012-12-27,57,45,25,13,7,2,52,23,12,29.91,29.53,10,3,20,0.00
2012-12-28,42,33,18,23,11,3,70,41,22,30.26,29.74,11,4,28,0.00
2012-12-29,46,26,13,11,8,3,67,50,22,30.50,30.24,6,2,14,0.00
2012-12-30,55,44,33,40,27,12,79,52,35,30.12,29.82,13,5,26,0.19
2012-12-31,49,43,27,38,26,18,80,51,30,30.09,29.71,13,5,26,0.19
2013-1-1,43,32,22,22,14,2,80,50,18,30.28,30.04,6,2,20,0.00